createdAt,value
2023-01-13T00:01:24.803Z,23.67
2023-01-13T00:03:54.543Z,17.50
2023-01-13T00:06:25.713Z,22.45
2023-01-13T00:08:53.335Z,18.65
2023-01-13T00:11:20.412Z,22.25
2023-01-13T00:13:47.253Z,21.80
2023-01-13T00:16:17.062Z,17.17
2023-01-13T00:18:44.439Z,21.42
2023-01-13T00:21:17.584Z,19.13
2023-01-13T00:23:44.332Z,20.70
2023-01-13T00:26:16.339Z,19.73
2023-01-13T00:28:43.252Z,20.02
2023-01-13T00:31:13.078Z,20.58
2023-01-13T00:33:40.274Z,20.65
2023-01-13T00:36:08.164Z,19.08
2023-01-13T00:38:36.034Z,18.63
2023-01-13T00:41:05.944Z,19.17
2023-01-13T00:43:33.947Z,19.67
2023-01-13T00:46:00.673Z,23.35
2023-01-13T00:48:28.768Z,16.33
2023-01-13T00:51:00.384Z,19.23
2023-01-13T00:53:28.731Z,19.70
2023-01-13T00:56:03.734Z,19.08
2023-01-13T00:58:32.641Z,19.45
2023-01-13T01:01:03.960Z,18.67
2023-01-13T01:03:31.152Z,14.77
2023-01-13T01:06:05.180Z,16.58
2023-01-13T01:08:31.736Z,14.75
2023-01-13T01:11:06.427Z,21.10
2023-01-13T01:13:33.267Z,17.75
2023-01-13T01:16:00.129Z,19.85
2023-01-13T01:18:26.677Z,19.33
2023-01-13T01:20:53.158Z,21.75
2023-01-13T01:23:19.677Z,17.27
2023-01-13T01:25:46.144Z,21.52
2023-01-13T01:28:13.803Z,21.15
2023-01-13T01:30:40.311Z,16.75
2023-01-13T01:33:06.861Z,24.05
2023-01-13T01:35:33.333Z,14.60
2023-01-13T01:37:59.832Z,19.38
2023-01-13T01:40:27.554Z,18.15
2023-01-13T01:43:12.651Z,16.35
2023-01-13T01:45:39.137Z,19.08
2023-01-13T01:48:07.715Z,22.65
2023-01-13T01:50:35.322Z,21.98
2023-01-13T01:53:15.989Z,19.42
2023-01-13T01:55:42.697Z,15.63
2023-01-13T01:58:28.365Z,19.60
2023-01-13T02:00:54.901Z,18.33
2023-01-13T02:03:21.579Z,19.58
2023-01-13T02:05:48.167Z,15.85
2023-01-13T02:08:15.449Z,17.30
2023-01-13T02:10:45.646Z,19.50
2023-01-13T02:13:13.735Z,13.98
2023-01-13T02:15:53.922Z,19.50
2023-01-13T02:18:29.320Z,16.98
2023-01-13T02:21:07.999Z,15.27
2023-01-13T02:24:14.819Z,22.90
2023-01-13T02:26:59.846Z,19.23
2023-01-13T02:30:12.770Z,16.13
2023-01-13T02:32:55.379Z,23.13
2023-01-13T02:35:27.950Z,17.67
2023-01-13T02:37:57.174Z,19.67
2023-01-13T02:40:31.723Z,24.55
2023-01-13T02:43:23.040Z,20.38
2023-01-13T02:45:56.850Z,14.15
2023-01-13T02:50:56.498Z,19.20
2023-01-13T02:53:35.755Z,21.98
2023-01-13T02:56:05.210Z,18.33
2023-01-13T02:58:36.179Z,22.20
2023-01-13T03:01:02.952Z,18.67
2023-01-13T03:03:29.492Z,15.85
2023-01-13T03:06:30.166Z,17.90
2023-01-13T03:09:26.317Z,23.50
2023-01-13T03:12:02.091Z,18.17
2023-01-13T03:15:04.009Z,18.30
2023-01-13T03:17:41.147Z,16.75
2023-01-13T03:20:24.119Z,16.42
2023-01-13T03:22:55.582Z,19.35
2023-01-13T03:25:24.137Z,19.77
2023-01-13T03:27:58.545Z,18.42
2023-01-13T03:30:36.405Z,19.67
2023-01-13T03:33:09.657Z,19.95
2023-01-13T03:35:46.001Z,14.75
2023-01-13T03:38:24.032Z,15.73
2023-01-13T03:40:54.793Z,18.02
2023-01-13T03:43:47.299Z,15.93
2023-01-13T03:46:44.438Z,15.93
2023-01-13T03:49:17.297Z,15.73
2023-01-13T03:51:50.936Z,16.13
2023-01-13T03:54:19.585Z,15.35
2023-01-13T03:56:51.012Z,14.07
2023-01-13T03:59:23.854Z,14.23
2023-01-13T04:01:54.528Z,22.20
2023-01-13T04:04:35.727Z,11.57
2023-01-13T04:07:35.312Z,14.02
2023-01-13T04:10:06.273Z,20.08
2023-01-13T04:13:02.563Z,16.83
2023-01-13T04:15:36.373Z,16.02
2023-01-13T04:20:51.915Z,11.00
2023-01-13T04:23:19.538Z,14.05
2023-01-13T04:25:46.801Z,12.82
2023-01-13T04:28:14.918Z,16.40
2023-01-13T04:33:09.335Z,17.35
2023-01-13T04:35:36.490Z,11.93
2023-01-13T04:38:10.053Z,13.02
2023-01-13T04:40:36.631Z,13.07
2023-01-13T04:43:04.037Z,12.65
2023-01-13T04:45:30.766Z,9.95
2023-01-13T04:47:57.299Z,16.13
2023-01-13T04:50:24.060Z,9.75
2023-01-13T04:52:51.575Z,9.70
2023-01-13T04:55:19.061Z,10.45
2023-01-13T04:57:45.644Z,11.02
2023-01-13T05:00:14.753Z,11.30
2023-01-13T05:02:41.458Z,9.98
2023-01-13T05:05:08.620Z,12.57
2023-01-13T05:07:35.361Z,7.80
2023-01-13T05:10:01.912Z,10.07
2023-01-13T05:12:46.876Z,9.32
2023-01-13T05:15:33.243Z,5.32
2023-01-13T05:18:01.138Z,8.70
2023-01-13T05:20:28.047Z,9.75
2023-01-13T05:23:13.097Z,8.02
2023-01-13T05:25:44.205Z,10.18
2023-01-13T05:28:10.955Z,9.30
2023-01-13T05:30:42.297Z,11.95
2023-01-13T05:33:14.967Z,7.72
2023-01-13T05:35:43.008Z,8.10
2023-01-13T05:38:10.311Z,13.18
2023-01-13T05:40:59.463Z,9.18
2023-01-13T05:43:26.796Z,12.90
2023-01-13T05:46:09.422Z,10.57
2023-01-13T05:48:38.778Z,13.57
2023-01-13T05:51:07.828Z,11.93
2023-01-13T05:53:34.819Z,8.27
2023-01-13T05:56:04.422Z,7.47
2023-01-13T05:58:31.263Z,9.15
2023-01-13T06:01:11.189Z,10.82
2023-01-13T06:03:38.382Z,10.38
2023-01-13T06:06:05.203Z,11.13
2023-01-13T06:08:32.281Z,9.70
2023-01-13T06:10:58.958Z,8.20
2023-01-13T06:13:25.797Z,14.02
2023-01-13T06:15:56.522Z,10.13
2023-01-13T06:18:23.673Z,9.57
2023-01-13T06:20:50.161Z,10.75
2023-01-13T06:23:16.676Z,12.25
2023-01-13T06:26:01.541Z,11.43
2023-01-13T06:28:28.380Z,13.63
2023-01-13T06:31:00.600Z,9.75
2023-01-13T06:33:33.473Z,11.02
2023-01-13T06:36:03.177Z,9.53
2023-01-13T06:38:33.218Z,16.20
2023-01-13T06:40:59.989Z,13.85
2023-01-13T06:43:26.571Z,9.00
2023-01-13T06:45:55.111Z,10.40
2023-01-13T06:48:27.937Z,9.52
2023-01-13T06:50:54.488Z,10.57
2023-01-13T06:53:21.333Z,11.98
2023-01-13T06:55:47.971Z,11.80
2023-01-13T06:58:14.506Z,12.95
2023-01-13T07:00:41.614Z,12.40
2023-01-13T07:03:18.394Z,14.75
2023-01-13T07:05:53.598Z,7.43
2023-01-13T07:08:20.603Z,11.45
2023-01-13T07:10:47.187Z,14.82
2023-01-13T07:13:32.561Z,9.50
2023-01-13T07:16:04.882Z,10.40
2023-01-13T07:18:33.015Z,10.68
2023-01-13T07:21:01.983Z,8.07
2023-01-13T07:23:33.446Z,12.32
2023-01-13T07:26:00.507Z,10.30
2023-01-13T07:28:28.583Z,14.13
2023-01-13T07:30:55.265Z,14.00
2023-01-13T07:33:22.139Z,9.98
2023-01-13T07:35:49.484Z,11.68
2023-01-13T07:38:16.069Z,11.30
2023-01-13T07:40:42.617Z,14.48
2023-01-13T07:43:30.722Z,15.45
2023-01-13T07:45:58.762Z,11.20
2023-01-13T07:48:26.857Z,9.23
2023-01-13T07:50:54.076Z,8.50
2023-01-13T07:53:21.321Z,8.82
2023-01-13T07:55:48.855Z,13.13
2023-01-13T07:58:15.447Z,10.55
2023-01-13T08:00:42.019Z,12.15
2023-01-13T08:03:08.688Z,9.27
2023-01-13T08:05:36.171Z,12.65
2023-01-13T08:08:02.679Z,7.85
2023-01-13T08:10:29.484Z,10.93
2023-01-13T08:13:14.644Z,8.77
2023-01-13T08:15:41.354Z,9.48
2023-01-13T08:18:07.885Z,10.95
2023-01-13T08:20:34.725Z,12.30
2023-01-13T08:23:01.297Z,11.60
2023-01-13T08:25:29.366Z,11.43
2023-01-13T08:27:56.239Z,10.88
2023-01-13T08:30:23.045Z,14.25
2023-01-13T08:32:50.579Z,10.85
2023-01-13T08:35:17.676Z,7.88
2023-01-13T08:37:45.995Z,10.95
2023-01-13T08:40:13.809Z,15.43
2023-01-13T08:42:40.491Z,10.00
2023-01-13T08:45:08.944Z,9.80
2023-01-13T08:47:35.677Z,10.95
2023-01-13T08:50:02.567Z,6.18
2023-01-13T08:52:30.068Z,10.02
2023-01-13T08:54:56.970Z,13.60
2023-01-13T08:57:23.533Z,9.65
2023-01-13T08:59:50.403Z,10.00
2023-01-13T09:02:20.290Z,13.65
2023-01-13T09:04:48.210Z,12.75
2023-01-13T09:07:14.872Z,11.68
2023-01-13T09:09:41.968Z,14.18
2023-01-13T09:12:30.181Z,11.90
2023-01-13T09:14:56.849Z,11.18
2023-01-13T09:17:23.388Z,11.95
2023-01-13T09:19:50.045Z,10.32
2023-01-13T09:22:18.689Z,7.00
2023-01-13T09:24:46.066Z,10.05
2023-01-13T09:27:14.852Z,10.88
2023-01-13T09:29:42.117Z,9.50
2023-01-13T09:32:12.407Z,10.30
2023-01-13T09:34:57.792Z,10.32
2023-01-13T09:37:24.381Z,9.82
2023-01-13T09:39:50.985Z,14.93
2023-01-13T09:42:57.266Z,10.65
2023-01-13T09:45:32.599Z,7.57
2023-01-13T09:48:34.154Z,11.13
2023-01-13T09:51:18.630Z,8.77
2023-01-13T09:53:55.950Z,10.25
2023-01-13T09:56:26.379Z,10.55
2023-01-13T09:58:52.904Z,14.90
2023-01-13T10:01:37.908Z,11.02
2023-01-13T10:04:11.672Z,9.23
2023-01-13T10:09:06.377Z,17.65
2023-01-13T10:11:58.160Z,15.50
2023-01-13T10:14:28.226Z,14.38
2023-01-13T10:17:17.922Z,18.95
2023-01-13T10:19:56.561Z,14.02
2023-01-13T10:22:57.973Z,12.38
2023-01-13T10:25:43.233Z,11.63
2023-01-13T10:28:14.828Z,9.75
2023-01-13T10:30:46.391Z,16.83
2023-01-13T10:33:27.775Z,16.60
2023-01-13T10:36:03.381Z,17.58
2023-01-13T10:38:35.930Z,14.27
2023-01-13T10:41:05.583Z,12.82
2023-01-13T10:43:32.450Z,14.38
2023-01-13T10:46:00.616Z,12.77
2023-01-13T10:49:00.685Z,11.70
2023-01-13T10:51:45.164Z,11.10
2023-01-13T10:54:11.817Z,11.40
2023-01-13T10:56:40.289Z,14.32
2023-01-13T10:59:13.504Z,10.65
2023-01-13T11:01:42.753Z,12.23
2023-01-13T11:04:43.301Z,13.95
2023-01-13T11:07:34.583Z,10.15
2023-01-13T11:10:24.614Z,11.32
2023-01-13T11:12:58.954Z,13.77
2023-01-13T11:15:38.217Z,11.60
2023-01-13T11:18:16.825Z,7.45
2023-01-13T11:20:46.339Z,11.73
2023-01-13T11:23:37.066Z,8.48
2023-01-13T11:26:21.705Z,10.13
2023-01-13T11:29:05.654Z,14.15
2023-01-13T11:31:42.760Z,11.95
2023-01-13T11:34:35.824Z,11.80
2023-01-13T11:37:09.603Z,11.20
2023-01-13T11:42:30.121Z,12.20
2023-01-13T11:45:30.766Z,11.65
2023-01-13T11:48:00.092Z,12.02
2023-01-13T11:50:48.042Z,13.73
2023-01-13T11:53:45.730Z,10.60
2023-01-13T11:56:49.466Z,8.93
2023-01-13T11:59:25.212Z,11.90
2023-01-13T12:02:04.842Z,10.05
2023-01-13T12:04:53.016Z,10.90
2023-01-13T12:07:52.809Z,9.68
2023-01-13T12:10:37.182Z,8.82
2023-01-13T12:13:22.054Z,10.40
2023-01-13T12:16:00.749Z,8.10
2023-01-13T12:18:59.731Z,10.13
2023-01-13T12:21:30.450Z,7.85
2023-01-13T12:24:39.099Z,7.13
2023-01-13T12:27:09.900Z,10.18
2023-01-13T12:29:38.157Z,8.90
2023-01-13T12:32:14.710Z,8.10
2023-01-13T12:34:54.430Z,9.07
2023-01-13T12:37:39.049Z,9.00
2023-01-13T12:40:34.264Z,8.50
2023-01-13T12:43:40.144Z,11.02
2023-01-13T12:46:18.639Z,9.38
2023-01-13T12:48:52.992Z,7.70
2023-01-13T12:51:36.563Z,7.72
2023-01-13T12:54:37.612Z,9.82
2023-01-13T12:57:16.271Z,10.63
2023-01-13T12:59:48.870Z,6.15
2023-01-13T13:02:15.939Z,9.65
2023-01-13T13:04:48.445Z,10.00
2023-01-13T13:07:18.654Z,8.65
2023-01-13T13:09:52.217Z,7.53
2023-01-13T13:13:00.691Z,8.35
2023-01-13T13:15:35.258Z,8.20
2023-01-13T13:18:02.427Z,9.15
2023-01-13T13:21:09.037Z,7.28
2023-01-13T13:23:44.394Z,8.80
2023-01-13T13:26:31.670Z,8.05
2023-01-13T13:29:27.321Z,8.07
2023-01-13T13:32:15.446Z,6.93
2023-01-13T13:35:23.228Z,5.10
2023-01-13T13:38:30.467Z,5.65
2023-01-13T13:41:15.692Z,10.70
2023-01-13T13:44:03.513Z,6.78
2023-01-13T13:46:47.402Z,8.30
2023-01-13T13:49:19.289Z,5.75
2023-01-13T13:52:21.244Z,6.70
2023-01-13T13:54:52.690Z,6.43
2023-01-13T13:57:23.175Z,9.27
2023-01-13T13:59:55.035Z,5.25
2023-01-13T14:02:34.448Z,7.28
2023-01-13T14:05:17.335Z,11.30
2023-01-13T14:07:46.732Z,9.40
2023-01-13T14:10:24.739Z,7.30
2023-01-13T14:12:52.310Z,4.75
2023-01-13T14:15:35.521Z,6.25
2023-01-13T14:18:06.171Z,7.15
2023-01-13T14:20:34.537Z,6.80
2023-01-13T14:23:01.766Z,6.50
2023-01-13T14:25:34.127Z,9.95
2023-01-13T14:28:14.238Z,8.75
2023-01-13T14:30:42.156Z,7.63
2023-01-13T14:33:17.278Z,6.85
2023-01-13T14:36:11.513Z,8.35
2023-01-13T14:38:38.530Z,6.53
2023-01-13T14:41:28.120Z,6.47
2023-01-13T14:43:57.936Z,5.43
2023-01-13T14:46:25.662Z,9.95
2023-01-13T14:48:59.737Z,9.10
2023-01-13T14:51:29.061Z,8.38
2023-01-13T14:53:55.764Z,7.38
2023-01-13T14:56:42.102Z,12.38
2023-01-13T14:59:46.613Z,9.25
2023-01-13T15:02:25.235Z,6.35
2023-01-13T15:04:58.670Z,4.82
2023-01-13T15:07:28.591Z,7.10
2023-01-13T15:09:58.443Z,8.25
2023-01-13T15:12:39.667Z,10.63
2023-01-13T15:15:26.571Z,6.68
2023-01-13T15:17:53.601Z,9.60
2023-01-13T15:20:22.191Z,10.05
2023-01-13T15:22:49.047Z,10.40
2023-01-13T15:25:15.845Z,9.05
2023-01-13T15:27:45.044Z,10.10
2023-01-13T15:30:25.034Z,6.88
2023-01-13T15:32:52.867Z,9.77
2023-01-13T15:35:20.673Z,11.32
2023-01-13T15:37:48.904Z,18.13
2023-01-13T15:40:25.421Z,21.92
2023-01-13T15:43:10.903Z,26.73
2023-01-13T15:45:56.223Z,28.55
2023-01-13T15:48:24.481Z,34.47
2023-01-13T15:50:51.091Z,27.60
2023-01-13T15:53:18.097Z,29.60
2023-01-13T15:55:47.093Z,34.05
2023-01-13T15:58:14.747Z,35.67
2023-01-13T16:00:42.351Z,33.45
2023-01-13T16:03:16.269Z,33.90
2023-01-13T16:05:43.821Z,31.15
2023-01-13T16:08:18.325Z,32.78
2023-01-13T16:10:45.608Z,34.65
2023-01-13T16:13:13.168Z,35.97
2023-01-13T16:15:49.426Z,33.05
2023-01-13T16:18:18.801Z,30.55
2023-01-13T16:20:45.672Z,32.97
2023-01-13T16:23:12.791Z,32.60
2023-01-13T16:25:40.407Z,33.92
2023-01-13T16:28:07.187Z,30.25
2023-01-13T16:30:36.280Z,31.73
2023-01-13T16:33:03.824Z,28.95
2023-01-13T16:35:32.186Z,29.58
2023-01-13T16:37:59.824Z,27.45
2023-01-13T16:40:31.083Z,26.55
2023-01-13T16:42:58.048Z,23.95
2023-01-13T16:45:25.113Z,28.40
2023-01-13T16:47:51.725Z,24.77
2023-01-13T16:50:28.247Z,21.58
2023-01-13T16:52:54.748Z,28.08
2023-01-13T16:55:21.446Z,23.80
2023-01-13T16:57:47.951Z,22.88
2023-01-13T17:00:15.067Z,22.00
2023-01-13T17:02:41.728Z,17.77
2023-01-13T17:05:12.047Z,21.65
2023-01-13T17:07:39.582Z,20.17
2023-01-13T17:10:06.529Z,18.63
2023-01-13T17:12:33.086Z,23.63
2023-01-13T17:14:59.623Z,26.98
2023-01-13T17:17:27.919Z,30.05
2023-01-13T17:19:55.179Z,31.77
2023-01-13T17:22:22.270Z,34.58
2023-01-13T17:24:48.976Z,38.53
2023-01-13T17:27:17.256Z,37.40
2023-01-13T17:29:44.144Z,36.67
2023-01-13T17:32:18.578Z,36.30
2023-01-13T17:34:45.685Z,40.55
2023-01-13T17:37:15.592Z,38.50
2023-01-13T17:39:44.289Z,34.83
2023-01-13T17:42:12.143Z,35.63
2023-01-13T17:44:39.197Z,36.90
2023-01-13T17:47:05.972Z,35.03
2023-01-13T17:49:32.901Z,35.38
2023-01-13T17:51:59.560Z,34.35
2023-01-13T17:54:26.134Z,37.88
2023-01-13T17:56:52.688Z,34.65
2023-01-13T17:59:19.993Z,30.95
2023-01-13T18:01:46.599Z,33.92
2023-01-13T18:04:18.355Z,39.80
2023-01-13T18:06:45.489Z,33.65
2023-01-13T18:09:12.366Z,29.58
2023-01-13T18:11:39.100Z,29.13
2023-01-13T18:14:05.713Z,30.88
2023-01-13T18:16:33.064Z,32.28
2023-01-13T18:19:17.966Z,33.65
2023-01-13T18:22:04.032Z,37.15
2023-01-13T18:24:49.275Z,36.28
2023-01-13T18:27:22.693Z,38.05
2023-01-13T18:29:55.835Z,41.92
2023-01-13T18:32:26.475Z,40.55
2023-01-13T18:35:04.778Z,45.15
2023-01-13T18:37:32.224Z,48.15
2023-01-13T18:39:58.734Z,51.22
2023-01-13T18:42:43.925Z,49.65
2023-01-13T18:45:10.865Z,52.63
2023-01-13T18:47:39.251Z,48.20
2023-01-13T18:50:06.180Z,47.13
2023-01-13T18:52:32.707Z,48.38
2023-01-13T18:54:59.231Z,49.38
2023-01-13T18:57:25.757Z,48.60
2023-01-13T18:59:52.258Z,49.58
2023-01-13T19:02:20.722Z,48.20
2023-01-13T19:04:47.730Z,47.25
2023-01-13T19:07:22.082Z,51.53
2023-01-13T19:09:50.009Z,46.45
2023-01-13T19:12:25.800Z,43.38
2023-01-13T19:14:57.000Z,43.30
2023-01-13T19:17:25.778Z,46.55
2023-01-13T19:19:54.927Z,42.47
2023-01-13T19:22:28.555Z,41.13
2023-01-13T19:24:55.507Z,41.03
2023-01-13T19:27:22.196Z,40.28
2023-01-13T19:29:52.358Z,42.35
2023-01-13T19:32:21.987Z,38.95
2023-01-13T19:34:50.914Z,36.17
2023-01-13T19:37:18.568Z,33.13
2023-01-13T19:39:45.151Z,35.47
2023-01-13T19:42:31.469Z,35.33
2023-01-13T19:45:16.345Z,34.78
2023-01-13T19:47:45.339Z,30.48
2023-01-13T19:50:12.758Z,30.60
2023-01-13T19:52:39.307Z,27.85
2023-01-13T19:55:06.304Z,28.00
2023-01-13T19:57:32.822Z,26.98
2023-01-13T19:59:59.398Z,25.33
2023-01-13T20:02:28.827Z,26.92
2023-01-13T20:04:56.974Z,25.13
2023-01-13T20:07:25.067Z,21.95
2023-01-13T20:09:52.655Z,23.73
2023-01-13T20:12:21.085Z,23.77
2023-01-13T20:14:48.129Z,26.70
2023-01-13T20:17:17.044Z,20.27
2023-01-13T20:19:43.598Z,21.10
2023-01-13T20:22:10.679Z,17.90
2023-01-13T20:24:37.495Z,19.90
2023-01-13T20:27:04.797Z,23.90
2023-01-13T20:29:32.336Z,30.08
2023-01-13T20:31:59.508Z,32.10
2023-01-13T20:34:26.504Z,31.58
2023-01-13T20:36:53.367Z,34.90
2023-01-13T20:39:23.443Z,40.10
2023-01-13T20:42:08.593Z,37.80
2023-01-13T20:44:35.580Z,39.83
2023-01-13T20:47:03.158Z,45.67
2023-01-13T20:49:30.373Z,40.80
2023-01-13T20:51:57.480Z,42.92
2023-01-13T20:54:24.736Z,43.08
2023-01-13T20:56:51.505Z,39.22
2023-01-13T20:59:18.142Z,44.55
2023-01-13T21:01:44.781Z,41.83
2023-01-13T21:04:11.419Z,42.67
2023-01-13T21:06:38.144Z,41.75
2023-01-13T21:09:04.764Z,42.05
2023-01-13T21:11:49.755Z,42.42
2023-01-13T21:14:39.206Z,45.28
2023-01-13T21:17:06.748Z,45.00
2023-01-13T21:19:33.768Z,50.13
2023-01-13T21:22:00.345Z,47.20
2023-01-13T21:24:27.057Z,48.67
2023-01-13T21:26:57.603Z,47.22
2023-01-13T21:29:24.239Z,47.30
2023-01-13T21:31:50.899Z,46.95
2023-01-13T21:34:17.510Z,53.33
2023-01-13T21:36:44.090Z,51.47
2023-01-13T21:39:11.089Z,50.92
2023-01-13T21:41:56.381Z,48.78
2023-01-13T21:44:41.841Z,47.42
2023-01-13T21:47:36.038Z,49.97
2023-01-13T21:50:04.034Z,48.35
2023-01-13T21:52:30.548Z,50.83
2023-01-13T21:55:15.707Z,49.95
2023-01-13T21:57:46.179Z,45.22
2023-01-13T22:00:13.088Z,46.63
2023-01-13T22:02:39.770Z,51.20
2023-01-13T22:05:08.476Z,49.67
2023-01-13T22:07:36.634Z,48.85
2023-01-13T22:10:04.845Z,46.97
2023-01-13T22:12:31.456Z,43.63
2023-01-13T22:14:58.083Z,52.05
2023-01-13T22:17:27.243Z,45.72
2023-01-13T22:19:57.117Z,46.60
2023-01-13T22:22:25.566Z,47.97
2023-01-13T22:24:53.321Z,43.58
2023-01-13T22:27:23.269Z,42.83
2023-01-13T22:29:50.936Z,40.05
2023-01-13T22:32:18.148Z,43.85
2023-01-13T22:34:44.749Z,44.97
2023-01-13T22:37:11.937Z,42.33
2023-01-13T22:39:38.962Z,42.30
2023-01-13T22:42:06.369Z,43.55
2023-01-13T22:44:33.957Z,42.08
2023-01-13T22:47:00.499Z,41.20
2023-01-13T22:49:27.283Z,40.92
2023-01-13T22:51:54.440Z,47.17
2023-01-13T22:54:20.975Z,44.90
2023-01-13T22:56:47.488Z,44.97
2023-01-13T22:59:14.722Z,40.03
2023-01-13T23:01:42.212Z,44.63
2023-01-13T23:04:13.366Z,41.30
2023-01-13T23:06:40.478Z,40.80
2023-01-13T23:09:07.597Z,41.85
2023-01-13T23:11:34.382Z,43.03
2023-01-13T23:14:04.499Z,41.47
2023-01-13T23:16:34.733Z,44.13
2023-01-13T23:19:01.558Z,40.70
2023-01-13T23:21:33.683Z,36.75
2023-01-13T23:24:00.582Z,40.35
2023-01-13T23:26:28.105Z,37.03
2023-01-13T23:28:58.719Z,37.63
2023-01-13T23:31:25.295Z,34.20
2023-01-13T23:33:51.812Z,38.20
2023-01-13T23:36:21.747Z,34.63
2023-01-13T23:38:48.538Z,34.97
2023-01-13T23:41:17.511Z,36.88
2023-01-13T23:43:48.859Z,34.15
2023-01-13T23:46:16.807Z,35.38
2023-01-13T23:48:43.390Z,33.90
2023-01-13T23:51:12.988Z,30.75
2023-01-13T23:53:42.509Z,34.78
2023-01-13T23:56:20.266Z,30.48
2023-01-13T23:58:47.813Z,31.20
